Shady Grove, PA (17256)

8:06 PM EDT on September 03, 2015 (GMT -0400)
State Line | | Change Station
CLOSE
Current Station
Personal Weather Station
Location: Greencastle, PA
Elevation: 661 ft
Nearby Weather Stations

Elev 661 ft 39.74 °N, 77.72 °W | Updated 5 seconds ago

Partly Cloudy
Partly Cloudy
79.2 °F
Feels Like 82 °F
N
0.0
Wind Variable Wind from West
Gusts 0.0 mph

Today
High -- | Low -- °F
--% Chance of Precip.
Yesterday
High -- | Low -- °F
Precip. -- in
6:40 AM 7:39 PM
Waning Gibbous, 65% visible
Pressure 29.91 in
Visibility 8.0 miles
Clouds Clear
Heat Index 82 °F
Dew Point 68 °F
Humidity 68%
Rainfall 0.00 in
Snow Depth Not available.
UV 0 out of 12
Pollen 10.20 out of 12
Air Quality Not available.
Flu Activity Not available.
METAR KHGR 032353Z 00000KT 8SM CLR 28/19 A2990 RMK AO2 SLP129 T02830194 10339 20283 53007
Pressure 29.91 in
Visibility 8.0 miles
Clouds Clear
Heat Index 82 °F
Dew Point 68 °F
Humidity 68%
Rainfall 0.00 in
Snow Depth Not available.
UV 0 out of 12
Pollen 10.20 out of 12
Air Quality Not available.
Flu Activity Not available.
METAR KHGR 032353Z 00000KT 8SM CLR 28/19 A2990 RMK AO2 SLP129 T02830194 10339 20283 53007

10-Day Weather Forecast

×

Almanac

Astronomy

Sep. 03, 2015 Rise Set
Actual Time
Civil Twilight
Nautical Twilight
Astronomical Twilight
Moon
Length of Visible Light
Length of Day
Tomorrow will be .
, % of the Moon is Illuminated

Today's Extremes

State Highs State Lows

Community

WunderPhotos

Upload Photos

1,852,069 photos uploaded!

WunderBlogs® & News

Nearby

Air Quality

  Air Quality AQ Index Pollutant
Not available.

Snow Depth

Station Depth Elevation

Earthquake Activity

City Distance Mag. Time & Date
Minimum magnitude displayed is 2.5.

Coastal Water Temperatures

Place Temperature

Stations

Nearby Weather Stations

Station Location Temp. Windchill Dew Point Humidity Wind Precip. Elev Updated Type